Time;durP1;ratioP1;P1;durP2;ratioP2;P2;SDS_P1;SDS_P2;PMS_P1;PMS_P2;Temp;Humidity;BMP_temperature;BMP_pressure;BME280_temperature;BME280_humidity;BME280_pressure;Samples;Min_cycle;Max_cycle;Signal;HPM_P1;HPM_P2
2024/02/29 00:01:05;;;;;;;15.33;10.93;;;3.40;99.90;;;;;;5084217;28;20219;-71
2024/02/29 00:03:32;;;;;;;14.53;10.73;;;3.40;99.90;;;;;;5082329;28;20246;-71
2024/02/29 00:06:00;;;;;;;15.10;11.90;;;3.30;99.90;;;;;;5087829;28;20238;-71
2024/02/29 00:08:27;;;;;;;13.43;10.90;;;3.30;99.90;;;;;;5088012;28;20289;-71
2024/02/29 00:10:54;;;;;;;17.33;12.07;;;3.30;99.90;;;;;;5085619;28;20209;-71
2024/02/29 00:13:21;;;;;;;16.80;11.63;;;3.30;99.90;;;;;;5076899;28;20647;-72
2024/02/29 00:15:48;;;;;;;15.63;11.50;;;3.20;99.90;;;;;;5076928;28;20789;-72
2024/02/29 00:18:15;;;;;;;15.87;11.40;;;3.20;99.90;;;;;;5087900;28;20214;-71
2024/02/29 00:20:42;;;;;;;14.70;11.10;;;3.20;99.90;;;;;;5087677;28;20665;-71
2024/02/29 00:23:10;;;;;;;13.97;11.03;;;3.10;99.90;;;;;;5087047;28;20202;-71
2024/02/29 00:25:37;;;;;;;14.00;11.13;;;3.10;99.90;;;;;;5086882;28;20293;-71
2024/02/29 00:28:04;;;;;;;15.33;11.73;;;3.10;99.90;;;;;;5087279;28;20203;-71
2024/02/29 00:30:30;;;;;;;16.60;12.17;;;3.10;99.90;;;;;;5087648;28;20234;-71
2024/02/29 00:32:57;;;;;;;18.13;11.73;;;3.00;99.90;;;;;;5087067;28;20702;-71
2024/02/29 00:35:24;;;;;;;14.57;11.73;;;3.00;99.90;;;;;;5080916;28;20220;-71
2024/02/29 00:37:51;;;;;;;16.73;11.70;;;3.00;99.90;;;;;;5066609;28;20203;-71
2024/02/29 00:40:19;;;;;;;14.43;11.47;;;3.00;99.90;;;;;;5067443;28;20295;-71
2024/02/29 00:42:46;;;;;;;16.07;11.90;;;3.00;99.90;;;;;;5074943;28;20294;-71
2024/02/29 00:45:13;;;;;;;16.60;11.97;;;2.90;99.90;;;;;;5082161;28;20310;-71
2024/02/29 00:47:40;;;;;;;16.53;12.37;;;2.90;99.90;;;;;;5086807;28;20610;-71
2024/02/29 00:50:08;;;;;;;15.63;11.90;;;2.90;99.90;;;;;;5087305;28;20603;-72
2024/02/29 00:52:34;;;;;;;15.40;11.60;;;2.80;99.90;;;;;;5086805;28;20247;-73
2024/02/29 00:55:03;;;;;;;16.87;12.30;;;2.80;99.90;;;;;;5087099;28;20238;-73
2024/02/29 00:57:31;;;;;;;17.43;12.03;;;2.80;99.90;;;;;;5086843;28;20211;-73
2024/02/29 00:59:58;;;;;;;18.07;12.17;;;2.80;99.90;;;;;;5087298;28;20289;-73
2024/02/29 01:02:25;;;;;;;16.60;11.67;;;2.80;99.90;;;;;;5087091;28;20256;-73
2024/02/29 01:04:52;;;;;;;16.30;12.07;;;2.80;99.90;;;;;;5087227;28;20249;-73
2024/02/29 01:07:19;;;;;;;17.40;12.17;;;2.80;99.90;;;;;;5086746;28;20203;-73
2024/02/29 01:09:45;;;;;;;17.27;12.17;;;2.80;99.90;;;;;;5086650;28;20289;-71
2024/02/29 01:12:12;;;;;;;17.17;12.30;;;2.80;99.90;;;;;;5086173;28;20318;-71
2024/02/29 01:14:40;;;;;;;16.33;11.97;;;2.80;99.90;;;;;;5086662;28;21178;-71
2024/02/29 01:17:08;;;;;;;16.17;12.03;;;2.80;99.90;;;;;;5087170;28;20291;-71
2024/02/29 01:19:34;;;;;;;15.13;11.87;;;2.80;99.90;;;;;;5086659;28;20657;-71
2024/02/29 01:22:02;;;;;;;17.77;12.43;;;2.80;99.90;;;;;;5086685;28;20639;-71
2024/02/29 01:24:29;;;;;;;18.00;12.20;;;2.80;99.90;;;;;;5086600;28;20207;-72
2024/02/29 01:26:56;;;;;;;15.70;12.10;;;2.70;99.90;;;;;;5086900;28;20249;-72
2024/02/29 01:29:23;;;;;;;16.23;12.70;;;2.70;99.90;;;;;;5086829;28;20290;-72
2024/02/29 01:31:51;;;;;;;19.03;12.30;;;2.70;99.90;;;;;;5087337;28;20209;-72
2024/02/29 01:34:19;;;;;;;15.13;11.60;;;2.70;99.90;;;;;;5086353;28;20230;-72
2024/02/29 01:36:46;;;;;;;16.43;12.63;;;2.70;99.90;;;;;;5086862;28;20213;-72
2024/02/29 01:39:13;;;;;;;18.57;12.70;;;2.70;99.90;;;;;;5086765;28;20237;-72
2024/02/29 01:41:40;;;;;;;18.53;12.57;;;2.60;99.90;;;;;;5086637;28;20230;-72
2024/02/29 01:44:07;;;;;;;20.63;13.10;;;2.60;99.90;;;;;;5086542;28;20294;-72
2024/02/29 01:46:34;;;;;;;18.00;12.57;;;2.60;99.90;;;;;;5086458;28;20565;-72
2024/02/29 01:49:02;;;;;;;17.07;12.30;;;2.60;99.90;;;;;;5077979;28;20294;-72
2024/02/29 01:51:30;;;;;;;17.50;12.37;;;2.50;99.90;;;;;;5086051;28;20290;-72
2024/02/29 01:53:57;;;;;;;18.63;12.63;;;2.50;99.90;;;;;;5085885;28;20700;-72
2024/02/29 01:56:25;;;;;;;20.13;13.60;;;2.50;99.90;;;;;;5085576;28;20905;-72
2024/02/29 01:58:52;;;;;;;19.13;13.43;;;2.50;99.90;;;;;;5086663;28;20294;-72
2024/02/29 02:01:19;;;;;;;18.23;13.43;;;2.50;99.90;;;;;;5090262;28;20285;-72
2024/02/29 02:03:45;;;;;;;17.30;12.80;;;2.50;99.90;;;;;;5090682;28;20534;-71
2024/02/29 02:06:14;;;;;;;19.17;13.03;;;2.50;99.90;;;;;;5089933;28;20660;-71
2024/02/29 02:08:41;;;;;;;20.90;14.23;;;2.50;99.90;;;;;;5090168;28;20286;-69
2024/02/29 02:11:08;;;;;;;19.97;13.97;;;2.50;99.90;;;;;;5090294;28;20297;-69
2024/02/29 02:13:35;;;;;;;19.57;13.17;;;2.50;99.90;;;;;;5089531;28;20771;-70
2024/02/29 02:16:02;;;;;;;19.97;13.50;;;2.40;99.90;;;;;;5090592;28;20578;-70
2024/02/29 02:18:29;;;;;;;18.23;12.97;;;2.40;99.90;;;;;;5089535;28;20652;-70
2024/02/29 02:20:57;;;;;;;17.53;13.23;;;2.40;99.90;;;;;;5089983;28;20211;-69
2024/02/29 02:23:24;;;;;;;20.10;14.57;;;2.40;99.90;;;;;;5089849;28;20213;-72
2024/02/29 02:25:51;;;;;;;23.83;14.63;;;2.40;99.90;;;;;;5090112;28;20234;-70
2024/02/29 02:28:19;;;;;;;19.00;13.27;;;2.40;99.90;;;;;;5089732;28;20231;-71
2024/02/29 02:30:45;;;;;;;21.83;15.13;;;2.40;99.90;;;;;;5089433;28;20203;-71
2024/02/29 02:33:13;;;;;;;19.93;14.80;;;2.30;99.90;;;;;;5089604;28;20293;-70
2024/02/29 02:35:40;;;;;;;21.83;14.97;;;2.30;99.90;;;;;;5089757;28;20314;-71
2024/02/29 02:38:08;;;;;;;22.10;14.73;;;2.30;99.90;;;;;;5089460;28;20207;-71
2024/02/29 02:40:35;;;;;;;22.37;13.67;;;2.40;99.90;;;;;;5088930;28;20973;-71
2024/02/29 02:43:02;;;;;;;21.30;14.47;;;2.30;99.90;;;;;;5089209;28;20195;-71
2024/02/29 02:45:29;;;;;;;21.03;15.53;;;2.30;99.90;;;;;;5089431;28;20668;-71
2024/02/29 02:47:56;;;;;;;20.80;14.57;;;2.30;99.90;;;;;;5089451;28;20299;-71
2024/02/29 02:50:23;;;;;;;24.00;15.43;;;2.30;99.90;;;;;;5089131;28;20213;-71
2024/02/29 02:52:50;;;;;;;21.17;14.33;;;2.20;99.90;;;;;;5089197;28;20215;-71
2024/02/29 02:55:18;;;;;;;23.20;15.50;;;2.20;99.90;;;;;;5069161;28;20750;-72
2024/02/29 02:57:45;;;;;;;22.63;14.57;;;2.20;99.90;;;;;;5089054;28;20278;-72
2024/02/29 03:00:13;;;;;;;22.67;14.67;;;2.20;99.90;;;;;;5089087;28;20294;-72
2024/02/29 03:02:40;;;;;;;22.60;15.53;;;2.20;99.90;;;;;;5089201;28;20286;-72
2024/02/29 03:05:08;;;;;;;23.03;14.97;;;2.20;99.90;;;;;;5089182;28;20235;-72
2024/02/29 03:07:35;;;;;;;22.57;15.70;;;2.20;99.90;;;;;;5088769;28;20248;-72
2024/02/29 03:10:03;;;;;;;22.77;15.17;;;2.20;99.90;;;;;;5088916;28;20286;-72
2024/02/29 03:12:32;;;;;;;25.57;16.50;;;2.20;99.90;;;;;;5088297;28;20326;-72
2024/02/29 03:14:58;;;;;;;23.90;16.20;;;2.30;99.90;;;;;;5088621;28;20226;-71
2024/02/29 03:17:26;;;;;;;25.63;16.97;;;2.30;99.90;;;;;;5088875;28;20223;-71
2024/02/29 03:19:53;;;;;;;26.40;16.97;;;2.30;99.90;;;;;;5088404;28;20218;-71
2024/02/29 03:22:20;;;;;;;29.50;17.43;;;2.20;99.90;;;;;;5087929;28;20210;-71
2024/02/29 03:24:47;;;;;;;25.00;16.63;;;2.20;99.90;;;;;;5088996;28;20309;-71
2024/02/29 03:27:13;;;;;;;24.63;16.13;;;2.20;99.90;;;;;;5088625;28;20295;-71
2024/02/29 03:29:43;;;;;;;24.00;15.13;;;2.20;99.90;;;;;;5088398;28;20298;-70
2024/02/29 03:32:10;;;;;;;23.73;16.03;;;2.20;99.90;;;;;;5078967;28;20290;-70
2024/02/29 03:34:37;;;;;;;26.83;17.00;;;2.20;99.90;;;;;;5085306;28;20230;-70
2024/02/29 03:37:04;;;;;;;25.50;16.30;;;2.20;99.90;;;;;;5087875;28;20831;-71
2024/02/29 03:39:31;;;;;;;25.37;16.87;;;2.20;99.90;;;;;;5088197;28;20717;-70
2024/02/29 03:41:57;;;;;;;27.87;17.63;;;2.20;99.90;;;;;;5087974;28;20285;-71
2024/02/29 03:44:24;;;;;;;26.57;17.03;;;2.20;99.90;;;;;;5087855;28;20293;-71
2024/02/29 03:46:53;;;;;;;25.73;17.33;;;2.20;99.90;;;;;;5087953;28;20248;-71
2024/02/29 03:49:19;;;;;;;24.47;16.47;;;2.20;99.90;;;;;;5087984;28;20221;-70
2024/02/29 03:51:46;;;;;;;23.87;16.03;;;2.10;99.90;;;;;;5088112;28;20298;-71
2024/02/29 03:54:13;;;;;;;22.30;15.63;;;2.20;99.90;;;;;;5087536;28;20779;-71
2024/02/29 03:56:40;;;;;;;28.77;17.87;;;2.10;99.90;;;;;;5088280;28;20302;-71
2024/02/29 03:59:07;;;;;;;27.90;17.37;;;2.10;99.90;;;;;;5088132;28;20282;-72
2024/02/29 04:01:36;;;;;;;25.30;16.80;;;2.10;99.90;;;;;;5088149;28;20285;-71
2024/02/29 04:04:05;;;;;;;25.23;16.40;;;2.10;99.90;;;;;;5088126;28;20289;-72
2024/02/29 04:06:32;;;;;;;24.70;17.03;;;2.10;99.90;;;;;;5088005;28;20206;-72
2024/02/29 04:08:59;;;;;;;26.00;17.50;;;2.00;99.90;;;;;;5088056;28;20207;-72
2024/02/29 04:11:26;;;;;;;25.30;17.37;;;2.00;99.90;;;;;;5087559;28;20301;-72
2024/02/29 04:13:53;;;;;;;26.70;15.87;;;2.00;99.90;;;;;;5087165;28;20233;-72
2024/02/29 04:16:20;;;;;;;25.97;16.63;;;2.00;99.90;;;;;;5087374;28;20234;-72
2024/02/29 04:18:47;;;;;;;26.80;17.57;;;2.00;99.90;;;;;;5087773;28;20298;-72
2024/02/29 04:21:15;;;;;;;26.77;17.33;;;2.00;99.90;;;;;;5086957;28;20290;-72
2024/02/29 04:23:42;;;;;;;28.57;17.40;;;2.00;99.90;;;;;;5087271;28;20294;-72
2024/02/29 04:26:09;;;;;;;30.20;18.07;;;2.00;99.90;;;;;;5087352;28;20234;-72
2024/02/29 04:28:35;;;;;;;25.63;16.50;;;2.10;99.90;;;;;;5087547;28;20260;-72
2024/02/29 04:31:04;;;;;;;28.80;18.03;;;2.00;99.90;;;;;;5087581;28;20256;-72
2024/02/29 04:33:31;;;;;;;29.67;18.33;;;2.00;99.90;;;;;;5083836;28;20634;-72
2024/02/29 04:35:58;;;;;;;29.70;18.03;;;2.00;99.90;;;;;;5087176;28;20337;-72
2024/02/29 04:38:26;;;;;;;25.40;17.27;;;2.00;99.90;;;;;;5087303;28;20299;-72
2024/02/29 04:40:54;;;;;;;30.80;18.27;;;2.00;99.90;;;;;;5087220;28;20301;-72
2024/02/29 04:43:21;;;;;;;27.83;17.73;;;2.00;99.90;;;;;;5087264;28;20210;-72
2024/02/29 04:45:48;;;;;;;27.67;18.10;;;2.10;99.90;;;;;;5087071;28;20217;-72
2024/02/29 04:48:15;;;;;;;27.57;18.17;;;2.00;99.90;;;;;;5086745;28;20195;-72
2024/02/29 04:50:42;;;;;;;28.97;18.03;;;2.00;99.90;;;;;;5086711;28;20302;-71
2024/02/29 04:53:09;;;;;;;29.23;18.03;;;2.00;99.90;;;;;;5086662;28;20288;-73
2024/02/29 04:55:38;;;;;;;26.97;18.23;;;2.00;99.90;;;;;;5087066;28;20317;-73
2024/02/29 04:58:05;;;;;;;28.53;18.10;;;2.00;99.90;;;;;;5086824;28;20289;-73
2024/02/29 05:00:32;;;;;;;30.27;17.60;;;2.00;99.90;;;;;;5075941;28;20206;-73
2024/02/29 05:02:59;;;;;;;29.67;18.40;;;2.00;99.90;;;;;;5066733;28;20298;-73
2024/02/29 05:05:27;;;;;;;27.73;17.40;;;2.00;99.90;;;;;;5072385;28;20772;-72
2024/02/29 05:07:54;;;;;;;30.57;18.60;;;2.00;99.90;;;;;;5086984;28;20249;-72
2024/02/29 05:10:23;;;;;;;30.97;18.87;;;2.00;99.90;;;;;;5086984;28;20299;-72
2024/02/29 05:12:52;;;;;;;31.67;17.17;;;2.00;99.90;;;;;;5086301;28;20239;-72
2024/02/29 05:15:20;;;;;;;31.10;18.50;;;2.00;99.90;;;;;;5086809;28;20231;-72
2024/02/29 05:17:48;;;;;;;29.70;18.07;;;2.00;99.90;;;;;;5086837;28;20203;-72
2024/02/29 05:20:15;;;;;;;29.03;17.90;;;2.00;99.90;;;;;;5086908;28;20244;-72
2024/02/29 05:22:43;;;;;;;31.60;18.87;;;2.00;99.90;;;;;;5086631;28;20282;-71
2024/02/29 05:25:10;;;;;;;30.23;18.43;;;2.00;99.90;;;;;;5087075;28;20210;-71
2024/02/29 05:27:37;;;;;;;29.20;18.77;;;2.00;99.90;;;;;;5086637;28;20213;-72
2024/02/29 05:30:06;;;;;;;32.97;19.50;;;2.00;99.90;;;;;;5086623;28;20798;-71
2024/02/29 05:32:33;;;;;;;30.23;17.50;;;2.00;99.90;;;;;;5086560;28;20282;-72
2024/02/29 05:35:00;;;;;;;32.53;19.17;;;2.00;99.90;;;;;;5088996;28;20222;-72
2024/02/29 05:37:29;;;;;;;31.80;19.03;;;2.00;99.90;;;;;;5090185;28;20202;-71
2024/02/29 05:39:58;;;;;;;33.97;20.00;;;2.00;99.90;;;;;;5090576;28;20214;-72
2024/02/29 05:42:26;;;;;;;30.87;18.97;;;2.10;99.90;;;;;;5090591;28;20230;-72
2024/02/29 05:44:53;;;;;;;30.47;19.50;;;2.10;99.90;;;;;;5090439;28;20206;-72
2024/02/29 05:47:21;;;;;;;33.90;18.97;;;2.10;99.90;;;;;;5090123;28;20835;-72
2024/02/29 05:49:49;;;;;;;30.73;18.63;;;2.20;99.90;;;;;;5090978;28;20199;-71
2024/02/29 05:52:17;;;;;;;31.70;18.60;;;2.20;99.90;;;;;;5090091;28;20732;-71
2024/02/29 05:54:43;;;;;;;34.10;19.00;;;2.20;99.90;;;;;;5089911;28;20233;-71
2024/02/29 05:57:10;;;;;;;29.47;18.33;;;2.20;99.90;;;;;;5089749;28;20301;-72
2024/02/29 05:59:37;;;;;;;30.97;18.00;;;2.20;99.90;;;;;;5089748;28;21684;-71
2024/02/29 06:02:04;;;;;;;30.13;18.57;;;2.20;99.90;;;;;;5090600;28;20233;-71
2024/02/29 06:04:33;;;;;;;29.33;18.53;;;2.20;99.90;;;;;;5089823;28;20198;-71
2024/02/29 06:07:00;;;;;;;31.77;19.00;;;2.20;99.90;;;;;;5090170;28;20290;-71
2024/02/29 06:09:26;;;;;;;30.90;18.57;;;2.20;99.90;;;;;;5089732;28;20293;-72
2024/02/29 06:11:53;;;;;;;29.63;17.73;;;2.20;99.90;;;;;;5089995;28;20238;-72
2024/02/29 06:14:24;;;;;;;29.63;18.13;;;2.20;99.90;;;;;;5089821;28;20287;-72
2024/02/29 06:16:51;;;;;;;33.67;19.67;;;2.20;99.90;;;;;;5069632;28;20977;-72
2024/02/29 06:19:18;;;;;;;34.20;19.57;;;2.20;99.90;;;;;;5080709;28;20209;-71
2024/02/29 06:21:46;;;;;;;29.20;17.77;;;2.20;99.90;;;;;;5089419;28;20241;-71
2024/02/29 06:24:18;;;;;;;29.80;18.47;;;2.20;99.90;;;;;;5089881;28;20305;-71
2024/02/29 06:26:45;;;;;;;32.20;18.67;;;2.10;99.90;;;;;;5089133;28;20233;-71
2024/02/29 06:29:12;;;;;;;36.20;20.17;;;2.10;99.90;;;;;;5089648;28;20203;-71
2024/02/29 06:31:39;;;;;;;31.73;18.77;;;2.10;99.90;;;;;;5089236;28;20302;-69
2024/02/29 06:34:06;;;;;;;30.63;18.70;;;2.10;99.90;;;;;;5089832;28;20366;-70
2024/02/29 06:36:33;;;;;;;33.67;20.20;;;2.10;99.90;;;;;;5089340;28;20287;-70
2024/02/29 06:39:04;;;;;;;32.57;19.63;;;2.10;99.90;;;;;;5089519;28;20201;-70
2024/02/29 06:41:31;;;;;;;34.60;21.33;;;2.10;99.90;;;;;;5089747;28;20198;-71
2024/02/29 06:43:57;;;;;;;34.90;20.60;;;2.10;99.90;;;;;;5089719;28;20283;-70
2024/02/29 06:46:24;;;;;;;33.20;20.20;;;2.10;99.90;;;;;;5089189;28;20305;-70
2024/02/29 06:48:51;;;;;;;33.83;21.20;;;2.20;99.90;;;;;;5089729;28;20293;-71
2024/02/29 06:51:18;;;;;;;31.93;20.50;;;2.20;99.90;;;;;;5089025;28;20310;-71
2024/02/29 06:53:45;;;;;;;36.67;22.33;;;2.20;99.90;;;;;;5089406;28;20301;-71
2024/02/29 06:56:13;;;;;;;34.87;22.73;;;2.30;99.90;;;;;;5089202;28;20219;-72
2024/02/29 06:58:42;;;;;;;33.43;21.10;;;2.30;99.90;;;;;;5069565;28;20207;-72
2024/02/29 07:01:09;;;;;;;33.10;21.17;;;2.30;99.90;;;;;;5071529;28;20248;-72
2024/02/29 07:03:36;;;;;;;31.53;21.00;;;2.30;99.90;;;;;;5089121;28;20205;-72
2024/02/29 07:06:04;;;;;;;33.03;21.47;;;2.40;99.90;;;;;;5088998;28;20213;-72
2024/02/29 07:08:34;;;;;;;34.93;21.83;;;2.40;99.90;;;;;;5088671;28;20286;-71
2024/02/29 07:11:01;;;;;;;36.03;21.87;;;2.40;99.90;;;;;;5089060;28;20199;-71
2024/02/29 07:13:29;;;;;;;36.10;21.63;;;2.50;99.90;;;;;;5088471;28;20796;-71
2024/02/29 07:15:56;;;;;;;33.97;21.10;;;2.60;99.90;;;;;;5089305;28;20238;-71
2024/02/29 07:18:23;;;;;;;34.90;21.40;;;2.50;99.90;;;;;;5088707;28;20311;-72
2024/02/29 07:20:50;;;;;;;33.30;21.63;;;2.60;99.90;;;;;;5088488;28;20209;-72
2024/02/29 07:23:18;;;;;;;35.43;22.07;;;2.60;99.90;;;;;;5088075;28;20242;-71
2024/02/29 07:25:44;;;;;;;34.63;22.07;;;2.60;99.90;;;;;;5088227;28;20801;-70
2024/02/29 07:28:11;;;;;;;33.73;20.43;;;2.70;99.90;;;;;;5088202;28;20303;-71
2024/02/29 07:30:39;;;;;;;31.33;20.93;;;2.70;99.90;;;;;;5088572;28;20213;-71
2024/02/29 07:33:06;;;;;;;32.43;20.80;;;2.80;99.90;;;;;;5088367;28;20201;-71
2024/02/29 07:35:34;;;;;;;30.70;20.17;;;2.80;99.90;;;;;;5088097;28;20326;-71
2024/02/29 07:38:01;;;;;;;32.13;20.60;;;2.90;99.90;;;;;;5087968;28;20230;-71
2024/02/29 07:40:28;;;;;;;28.90;19.97;;;2.90;99.90;;;;;;5088289;28;20329;-70
2024/02/29 07:42:55;;;;;;;29.07;20.67;;;3.00;99.90;;;;;;5088391;28;20245;-71
2024/02/29 07:45:22;;;;;;;28.80;20.00;;;3.00;99.90;;;;;;5088516;28;20202;-72
2024/02/29 07:47:50;;;;;;;29.47;20.13;;;3.10;99.90;;;;;;5088530;28;20638;-72
2024/02/29 07:50:17;;;;;;;31.00;19.70;;;3.20;99.90;;;;;;5087840;28;20202;-71
2024/02/29 07:52:44;;;;;;;27.80;19.40;;;3.20;99.90;;;;;;5086709;28;20207;-72
2024/02/29 07:55:14;;;;;;;28.23;19.97;;;3.30;99.90;;;;;;5086219;28;20301;-73
2024/02/29 07:57:41;;;;;;;27.77;19.10;;;3.40;99.90;;;;;;5085460;28;20283;-72
2024/02/29 08:00:10;;;;;;;29.67;19.80;;;3.40;99.90;;;;;;5086225;28;20285;-72
2024/02/29 08:02:37;;;;;;;28.37;20.43;;;3.50;99.90;;;;;;5086345;28;20286;-72
2024/02/29 08:05:06;;;;;;;28.77;19.60;;;3.50;99.90;;;;;;5085457;28;20289;-72
2024/02/29 08:07:33;;;;;;;28.83;19.63;;;3.60;99.90;;;;;;5085102;28;20294;-72
2024/02/29 08:10:00;;;;;;;30.27;19.73;;;3.60;99.90;;;;;;5085547;28;20297;-72
2024/02/29 08:12:27;;;;;;;28.63;19.33;;;3.70;99.90;;;;;;5085097;28;20313;-72
2024/02/29 08:14:54;;;;;;;27.23;19.33;;;3.70;99.90;;;;;;5085615;28;20209;-72
2024/02/29 08:17:21;;;;;;;28.70;19.17;;;3.70;99.90;;;;;;5085102;28;20821;-72
2024/02/29 08:19:48;;;;;;;28.07;19.33;;;3.80;99.90;;;;;;5085529;28;20218;-72
2024/02/29 08:22:16;;;;;;;27.97;19.93;;;3.90;99.90;;;;;;5085183;28;20660;-72
2024/02/29 08:24:43;;;;;;;26.63;18.97;;;3.90;99.90;;;;;;5085956;28;20203;-72
2024/02/29 08:27:10;;;;;;;26.47;19.00;;;3.90;99.90;;;;;;5085570;28;20305;-72
2024/02/29 08:29:37;;;;;;;25.87;17.33;;;4.00;99.90;;;;;;5085176;28;20230;-72
2024/02/29 08:32:03;;;;;;;25.37;18.00;;;4.10;99.90;;;;;;5085660;28;20202;-72
2024/02/29 08:34:31;;;;;;;26.73;18.03;;;4.10;99.90;;;;;;5085569;28;20310;-72
2024/02/29 08:36:58;;;;;;;24.97;17.33;;;4.20;99.90;;;;;;5085227;28;20230;-72
2024/02/29 08:39:26;;;;;;;29.10;21.00;;;4.30;99.90;;;;;;5085048;28;20202;-71
2024/02/29 08:41:53;;;;;;;23.93;17.53;;;4.40;99.90;;;;;;5085170;28;20303;-71
2024/02/29 08:44:20;;;;;;;22.37;16.73;;;4.40;99.90;;;;;;5085383;28;20744;-71
2024/02/29 08:46:49;;;;;;;25.20;17.57;;;4.60;99.90;;;;;;5085856;28;20680;-71
2024/02/29 08:49:16;;;;;;;23.10;16.37;;;4.60;99.90;;;;;;5085259;28;20290;-71
2024/02/29 08:51:42;;;;;;;24.03;16.30;;;4.70;99.90;;;;;;5084811;28;20293;-71
2024/02/29 08:54:09;;;;;;;23.17;16.33;;;4.70;99.90;;;;;;5084839;28;20207;-71
2024/02/29 08:56:38;;;;;;;23.83;16.27;;;4.80;99.90;;;;;;5084504;28;20322;-71
2024/02/29 08:59:04;;;;;;;20.43;15.70;;;4.90;99.90;;;;;;5084203;28;20201;-72
2024/02/29 09:01:31;;;;;;;22.07;16.47;;;5.00;99.90;;;;;;5084083;28;20195;-71
2024/02/29 09:03:58;;;;;;;21.37;16.10;;;5.00;99.90;;;;;;5083863;28;20222;-72
2024/02/29 09:06:27;;;;;;;23.50;16.57;;;5.10;99.90;;;;;;5084658;28;20698;-72
2024/02/29 09:08:54;;;;;;;20.87;15.87;;;5.20;99.90;;;;;;5085230;28;20203;-72
2024/02/29 09:11:21;;;;;;;22.87;15.90;;;5.20;99.90;;;;;;5084499;28;20443;-72
2024/02/29 09:13:56;;;;;;;24.17;16.73;;;5.30;99.90;;;;;;5084207;28;20315;-72
2024/02/29 09:16:23;;;;;;;23.57;15.30;;;5.40;99.90;;;;;;5084462;28;20218;-72
2024/02/29 09:18:50;;;;;;;21.47;16.00;;;5.50;99.90;;;;;;5084560;28;20374;-72
2024/02/29 09:21:17;;;;;;;21.97;16.37;;;5.50;99.90;;;;;;5084207;28;20226;-72
2024/02/29 09:23:43;;;;;;;22.83;15.90;;;5.60;99.90;;;;;;5084912;28;20286;-72
2024/02/29 09:26:13;;;;;;;22.00;16.30;;;5.70;99.90;;;;;;5084621;28;20295;-72
2024/02/29 09:28:39;;;;;;;21.77;15.80;;;5.70;99.90;;;;;;5084087;28;21030;-72
2024/02/29 09:31:08;;;;;;;21.63;15.97;;;5.80;99.90;;;;;;5083598;28;20289;-72
2024/02/29 09:33:35;;;;;;;21.70;15.33;;;5.90;99.90;;;;;;5084233;28;20321;-72
2024/02/29 09:36:07;;;;;;;21.10;15.50;;;6.00;99.90;;;;;;5082432;28;20341;-72
2024/02/29 09:38:35;;;;;;;21.40;15.30;;;6.00;99.90;;;;;;5068882;28;20573;-72
2024/02/29 09:41:02;;;;;;;22.30;14.67;;;6.20;99.90;;;;;;5064279;28;20846;-72
2024/02/29 09:43:31;;;;;;;20.97;15.40;;;6.20;99.90;;;;;;5083976;28;20202;-72
2024/02/29 09:45:59;;;;;;;24.73;17.83;;;6.40;99.90;;;;;;5083615;28;20286;-72
2024/02/29 09:48:29;;;;;;;23.93;16.20;;;6.40;99.90;;;;;;5081581;28;20207;-72
2024/02/29 09:50:59;;;;;;;21.37;16.03;;;6.50;99.90;;;;;;5083081;28;20622;-72
2024/02/29 09:53:27;;;;;;;22.20;16.90;;;6.60;99.90;;;;;;5084929;28;20716;-71
2024/02/29 09:55:54;;;;;;;23.17;17.30;;;6.70;99.90;;;;;;5085521;28;20218;-72
2024/02/29 09:58:22;;;;;;;19.07;15.10;;;6.90;99.90;;;;;;5085274;28;20202;-71
2024/02/29 10:00:49;;;;;;;20.63;15.00;;;6.90;99.90;;;;;;5085490;28;20309;-71
2024/02/29 10:03:20;;;;;;;21.97;17.07;;;7.00;99.90;;;;;;5085336;28;20278;-71
2024/02/29 10:05:49;;;;;;;20.40;16.13;;;7.10;99.90;;;;;;5083660;28;20202;-71
2024/02/29 10:08:16;;;;;;;19.27;15.20;;;7.10;99.90;;;;;;5084276;28;20250;-72
2024/02/29 10:10:43;;;;;;;20.30;15.33;;;7.30;99.90;;;;;;5084868;28;20290;-72
2024/02/29 10:13:10;;;;;;;19.83;15.03;;;7.30;99.90;;;;;;5073503;28;20322;-72
2024/02/29 10:15:36;;;;;;;17.80;14.83;;;7.50;99.90;;;;;;5084991;28;20812;-71
2024/02/29 10:18:03;;;;;;;19.57;14.40;;;7.50;99.90;;;;;;5085448;28;20254;-71
2024/02/29 10:20:32;;;;;;;20.90;15.67;;;7.60;99.90;;;;;;5086727;28;20303;-71
2024/02/29 10:23:00;;;;;;;20.43;15.37;;;7.70;99.90;;;;;;5089088;28;20203;-72
2024/02/29 10:25:27;;;;;;;20.97;16.10;;;7.80;99.90;;;;;;5089090;28;20566;-71
2024/02/29 10:28:02;;;;;;;18.30;14.63;;;7.90;99.90;;;;;;5089232;28;20219;-71
2024/02/29 10:30:29;;;;;;;19.33;15.20;;;8.00;99.90;;;;;;5089602;28;20221;-71
2024/02/29 10:32:56;;;;;;;19.90;14.73;;;8.00;99.90;;;;;;5089217;28;20203;-72
2024/02/29 10:35:24;;;;;;;19.27;15.23;;;8.20;99.90;;;;;;5088864;28;20306;-71
2024/02/29 10:37:53;;;;;;;19.83;15.03;;;8.20;99.90;;;;;;5088818;28;20251;-72
2024/02/29 10:40:23;;;;;;;20.20;16.13;;;8.30;99.90;;;;;;5089162;28;20202;-72
2024/02/29 10:42:55;;;;;;;20.90;16.63;;;8.40;99.90;;;;;;5089367;28;20226;-72
2024/02/29 10:45:24;;;;;;;20.37;15.57;;;8.40;99.90;;;;;;5088321;28;20224;-71
2024/02/29 10:48:02;;;;;;;20.07;15.73;;;8.50;99.90;;;;;;5084211;28;20722;-70
2024/02/29 10:50:53;;;;;;;22.43;16.67;;;8.60;99.90;;;;;;5079306;28;21041;-71
2024/02/29 10:53:30;;;;;;;22.20;16.93;;;8.70;99.90;;;;;;5086661;28;20285;-71
2024/02/29 10:56:09;;;;;;;20.40;15.27;;;8.80;99.90;;;;;;5088762;28;20230;-74
2024/02/29 10:58:41;;;;;;;19.53;16.67;;;8.90;99.90;;;;;;5088880;28;20386;-71
2024/02/29 11:01:09;;;;;;;18.50;15.73;;;9.00;99.90;;;;;;5088243;28;20209;-71
2024/02/29 11:03:37;;;;;;;21.23;16.33;;;9.20;99.90;;;;;;5088343;28;20207;-71
2024/02/29 11:06:04;;;;;;;19.17;15.70;;;9.30;99.90;;;;;;5088462;28;20286;-71
2024/02/29 11:08:32;;;;;;;18.63;15.37;;;9.40;99.90;;;;;;5087971;28;20257;-72
2024/02/29 11:11:01;;;;;;;17.47;14.73;;;9.50;99.90;;;;;;5088286;28;20234;-72
2024/02/29 11:13:28;;;;;;;18.57;14.60;;;9.50;99.90;;;;;;5088117;28;20796;-72
2024/02/29 11:15:56;;;;;;;17.57;14.40;;;9.60;99.90;;;;;;5088429;28;20203;-72
2024/02/29 11:18:24;;;;;;;18.90;14.63;;;9.70;99.90;;;;;;5088208;28;20329;-72
2024/02/29 11:21:03;;;;;;;15.90;13.93;;;9.90;99.90;;;;;;5088343;28;20222;-72
2024/02/29 11:23:31;;;;;;;15.27;13.53;;;10.00;99.90;;;;;;5087724;28;20199;-71
2024/02/29 11:26:00;;;;;;;13.90;12.27;;;10.00;99.90;;;;;;5075029;28;20677;-72
2024/02/29 11:28:37;;;;;;;15.80;12.97;;;10.10;99.90;;;;;;5074919;28;20257;-72
2024/02/29 11:31:15;;;;;;;16.80;13.07;;;10.20;99.90;;;;;;5085800;28;20221;-72
2024/02/29 11:33:43;;;;;;;14.90;12.90;;;10.30;99.90;;;;;;5088010;28;20644;-72
2024/02/29 11:36:10;;;;;;;14.00;12.57;;;10.40;99.90;;;;;;5087403;28;20665;-72
2024/02/29 11:38:38;;;;;;;14.20;12.73;;;10.40;99.90;;;;;;5085670;28;20203;-71
2024/02/29 11:41:16;;;;;;;14.37;12.40;;;10.40;99.90;;;;;;5086729;28;20203;-72
2024/02/29 11:43:44;;;;;;;13.07;11.70;;;10.40;99.90;;;;;;5086377;28;20203;-72
2024/02/29 11:46:11;;;;;;;12.70;11.40;;;10.60;99.90;;;;;;5087380;28;20213;-72
2024/02/29 11:48:39;;;;;;;12.80;11.50;;;10.70;99.90;;;;;;5087300;28;20206;-70
2024/02/29 11:51:07;;;;;;;14.30;12.33;;;10.70;99.90;;;;;;5083185;28;20288;-71
2024/02/29 11:53:34;;;;;;;13.17;11.87;;;10.80;99.90;;;;;;5087699;28;20207;-72
2024/02/29 11:56:01;;;;;;;12.97;11.67;;;10.90;99.90;;;;;;5088219;28;20202;-71
2024/02/29 11:58:30;;;;;;;13.27;11.87;;;11.00;99.90;;;;;;5087629;28;20332;-71
2024/02/29 12:00:57;;;;;;;12.47;10.73;;;11.00;99.90;;;;;;5087285;28;20238;-71
2024/02/29 12:03:24;;;;;;;12.17;10.97;;;11.30;99.90;;;;;;5084622;28;20744;-71
2024/02/29 12:05:51;;;;;;;10.83;9.83;;;11.30;99.90;;;;;;5080276;28;20211;-71
2024/02/29 12:08:18;;;;;;;11.10;9.90;;;11.30;99.90;;;;;;5073990;28;20605;-71
2024/02/29 12:10:45;;;;;;;11.83;10.63;;;11.40;99.90;;;;;;5087449;28;20282;-71
2024/02/29 12:13:12;;;;;;;11.57;10.47;;;11.50;99.90;;;;;;5086851;28;20235;-71
2024/02/29 12:15:41;;;;;;;11.90;10.70;;;11.50;99.90;;;;;;5087103;28;20286;-71
2024/02/29 12:18:10;;;;;;;11.57;10.47;;;11.50;99.90;;;;;;5073142;28;20265;-71
2024/02/29 12:20:37;;;;;;;11.23;10.13;;;11.50;99.90;;;;;;5081278;28;20202;-71
2024/02/29 12:23:04;;;;;;;11.40;10.27;;;11.40;99.90;;;;;;5086738;28;20211;-71
2024/02/29 12:25:32;;;;;;;10.50;9.50;;;11.60;99.90;;;;;;5086264;28;21002;-71
2024/02/29 12:28:00;;;;;;;10.97;9.90;;;11.80;99.90;;;;;;5086898;28;20206;-71
2024/02/29 12:30:27;;;;;;;10.97;9.67;;;11.80;99.90;;;;;;5086365;28;20214;-71
2024/02/29 12:32:56;;;;;;;11.60;10.40;;;11.90;99.90;;;;;;5086161;28;20642;-71
2024/02/29 12:35:27;;;;;;;11.50;10.40;;;12.00;99.90;;;;;;5086514;28;20297;-71
2024/02/29 12:37:54;;;;;;;17.83;12.77;;;12.00;99.90;;;;;;5086490;28;20997;-71